sensor_id;sensor_type;location;lat;lon;timestamp;pressure;altitude;pressure_sealevel;temperature;humidity
54978;BME280;40873;47.522;19.106;2022-10-29T00:02:13;101559.31;;;12.19;100.00
54978;BME280;40873;47.522;19.106;2022-10-29T00:04:40;101563.09;;;12.13;100.00
54978;BME280;40873;47.522;19.106;2022-10-29T00:07:06;101566.19;;;12.04;100.00
54978;BME280;40873;47.522;19.106;2022-10-29T00:09:33;101556.41;;;12.06;100.00
54978;BME280;40873;47.522;19.106;2022-10-29T00:12:01;101571.41;;;12.05;100.00
54978;BME280;40873;47.522;19.106;2022-10-29T00:14:27;101570.47;;;12.25;100.00
54978;BME280;40873;47.522;19.106;2022-10-29T00:16:54;101567.59;;;12.30;100.00
54978;BME280;40873;47.522;19.106;2022-10-29T00:19:22;101569.66;;;12.23;100.00
54978;BME280;40873;47.522;19.106;2022-10-29T00:21:50;101567.84;;;12.06;100.00
54978;BME280;40873;47.522;19.106;2022-10-29T00:24:17;101581.72;;;12.12;100.00
54978;BME280;40873;47.522;19.106;2022-10-29T00:26:44;101577.56;;;12.06;100.00
54978;BME280;40873;47.522;19.106;2022-10-29T00:29:10;101570.09;;;12.14;100.00
54978;BME280;40873;47.522;19.106;2022-10-29T00:31:37;101575.56;;;12.11;100.00
54978;BME280;40873;47.522;19.106;2022-10-29T00:34:04;101565.34;;;12.03;100.00
54978;BME280;40873;47.522;19.106;2022-10-29T00:36:31;101563.59;;;12.21;100.00
54978;BME280;40873;47.522;19.106;2022-10-29T00:38:58;101569.19;;;12.15;100.00
54978;BME280;40873;47.522;19.106;2022-10-29T00:41:27;101563.41;;;12.07;100.00
54978;BME280;40873;47.522;19.106;2022-10-29T00:46:43;101566.69;;;12.12;100.00
54978;BME280;40873;47.522;19.106;2022-10-29T00:49:12;101572.25;;;12.06;100.00
54978;BME280;40873;47.522;19.106;2022-10-29T00:51:41;101561.81;;;12.03;100.00
54978;BME280;40873;47.522;19.106;2022-10-29T00:54:11;101557.19;;;11.89;100.00
54978;BME280;40873;47.522;19.106;2022-10-29T00:56:57;101557.69;;;11.97;100.00
54978;BME280;40873;47.522;19.106;2022-10-29T00:59:25;101557.34;;;12.05;100.00
54978;BME280;40873;47.522;19.106;2022-10-29T01:01:52;101560.81;;;12.05;100.00
54978;BME280;40873;47.522;19.106;2022-10-29T01:04:22;101559.41;;;12.17;100.00
54978;BME280;40873;47.522;19.106;2022-10-29T01:06:51;101549.44;;;12.22;100.00
54978;BME280;40873;47.522;19.106;2022-10-29T01:09:17;101543.19;;;12.23;100.00
54978;BME280;40873;47.522;19.106;2022-10-29T01:17:18;101532.22;;;11.95;100.00
54978;BME280;40873;47.522;19.106;2022-10-29T01:22:48;101517.88;;;12.00;100.00
54978;BME280;40873;47.522;19.106;2022-10-29T01:26:04;101518.22;;;11.93;100.00
54978;BME280;40873;47.522;19.106;2022-10-29T01:33:53;101514.88;;;11.89;100.00
54978;BME280;40873;47.522;19.106;2022-10-29T01:39:13;101506.38;;;11.83;100.00
54978;BME280;40873;47.522;19.106;2022-10-29T01:44:45;101502.19;;;12.15;100.00
54978;BME280;40873;47.522;19.106;2022-10-29T01:47:17;101503.56;;;12.04;100.00
54978;BME280;40873;47.522;19.106;2022-10-29T01:49:51;101496.31;;;11.91;100.00
54978;BME280;40873;47.522;19.106;2022-10-29T01:52:21;101489.91;;;12.14;100.00
54978;BME280;40873;47.522;19.106;2022-10-29T01:54:48;101494.13;;;12.18;100.00
54978;BME280;40873;47.522;19.106;2022-10-29T01:59:52;101489.13;;;12.12;100.00
54978;BME280;40873;47.522;19.106;2022-10-29T02:08:17;101490.00;;;11.93;100.00
54978;BME280;40873;47.522;19.106;2022-10-29T02:11:05;101499.28;;;12.02;100.00
54978;BME280;40873;47.522;19.106;2022-10-29T02:14:22;101495.09;;;12.15;100.00
54978;BME280;40873;47.522;19.106;2022-10-29T02:16:29;101491.53;;;12.16;100.00
54978;BME280;40873;47.522;19.106;2022-10-29T02:18:58;101494.84;;;12.02;100.00
54978;BME280;40873;47.522;19.106;2022-10-29T02:21:25;101493.41;;;11.95;100.00
54978;BME280;40873;47.522;19.106;2022-10-29T02:23:52;101487.75;;;12.03;100.00
54978;BME280;40873;47.522;19.106;2022-10-29T02:26:19;101486.97;;;12.01;100.00
54978;BME280;40873;47.522;19.106;2022-10-29T02:28:47;101492.06;;;11.87;100.00
54978;BME280;40873;47.522;19.106;2022-10-29T02:31:14;101495.66;;;11.86;100.00
54978;BME280;40873;47.522;19.106;2022-10-29T02:33:41;101497.69;;;11.79;100.00
54978;BME280;40873;47.522;19.106;2022-10-29T02:36:08;101494.91;;;11.82;100.00
54978;BME280;40873;47.522;19.106;2022-10-29T02:38:35;101497.56;;;11.82;100.00
54978;BME280;40873;47.522;19.106;2022-10-29T02:41:01;101492.22;;;11.84;100.00
54978;BME280;40873;47.522;19.106;2022-10-29T02:43:28;101490.28;;;11.87;100.00
54978;BME280;40873;47.522;19.106;2022-10-29T02:46:18;101495.38;;;11.92;100.00
54978;BME280;40873;47.522;19.106;2022-10-29T02:48:46;101498.50;;;11.81;100.00
54978;BME280;40873;47.522;19.106;2022-10-29T02:51:14;101487.56;;;11.89;100.00
54978;BME280;40873;47.522;19.106;2022-10-29T02:53:41;101488.81;;;11.80;100.00
54978;BME280;40873;47.522;19.106;2022-10-29T02:56:09;101481.50;;;11.87;100.00
54978;BME280;40873;47.522;19.106;2022-10-29T02:58:36;101489.78;;;11.98;100.00
54978;BME280;40873;47.522;19.106;2022-10-29T03:01:03;101479.41;;;11.93;100.00
54978;BME280;40873;47.522;19.106;2022-10-29T03:03:30;101484.44;;;11.80;100.00
54978;BME280;40873;47.522;19.106;2022-10-29T03:05:57;101491.88;;;11.91;100.00
54978;BME280;40873;47.522;19.106;2022-10-29T03:08:24;101485.63;;;11.92;100.00
54978;BME280;40873;47.522;19.106;2022-10-29T03:10:51;101487.88;;;11.83;100.00
54978;BME280;40873;47.522;19.106;2022-10-29T03:13:18;101493.63;;;11.72;100.00
54978;BME280;40873;47.522;19.106;2022-10-29T03:15:44;101488.13;;;11.76;100.00
54978;BME280;40873;47.522;19.106;2022-10-29T03:18:11;101496.91;;;11.77;100.00
54978;BME280;40873;47.522;19.106;2022-10-29T03:20:38;101492.63;;;11.93;100.00
54978;BME280;40873;47.522;19.106;2022-10-29T03:23:05;101477.16;;;11.86;100.00
54978;BME280;40873;47.522;19.106;2022-10-29T03:25:32;101480.19;;;11.95;100.00
54978;BME280;40873;47.522;19.106;2022-10-29T03:27:59;101476.06;;;11.90;100.00
54978;BME280;40873;47.522;19.106;2022-10-29T03:30:26;101472.72;;;11.86;100.00
54978;BME280;40873;47.522;19.106;2022-10-29T03:32:53;101468.78;;;11.76;100.00
54978;BME280;40873;47.522;19.106;2022-10-29T03:35:20;101465.28;;;11.75;100.00
54978;BME280;40873;47.522;19.106;2022-10-29T03:37:50;101464.38;;;11.75;100.00
54978;BME280;40873;47.522;19.106;2022-10-29T03:40:18;101464.47;;;11.73;100.00
54978;BME280;40873;47.522;19.106;2022-10-29T03:42:45;101478.25;;;11.61;100.00
54978;BME280;40873;47.522;19.106;2022-10-29T03:45:12;101478.19;;;11.63;100.00
54978;BME280;40873;47.522;19.106;2022-10-29T03:47:39;101474.34;;;11.70;100.00
54978;BME280;40873;47.522;19.106;2022-10-29T03:50:06;101476.19;;;11.68;100.00
54978;BME280;40873;47.522;19.106;2022-10-29T03:52:33;101474.34;;;11.70;100.00
54978;BME280;40873;47.522;19.106;2022-10-29T03:55:00;101471.22;;;11.62;100.00
54978;BME280;40873;47.522;19.106;2022-10-29T03:57:27;101469.34;;;11.64;100.00
54978;BME280;40873;47.522;19.106;2022-10-29T03:59:54;101470.19;;;11.64;100.00
54978;BME280;40873;47.522;19.106;2022-10-29T04:02:23;101476.13;;;11.69;100.00
54978;BME280;40873;47.522;19.106;2022-10-29T04:04:50;101468.91;;;11.73;100.00
54978;BME280;40873;47.522;19.106;2022-10-29T04:07:17;101471.69;;;11.70;100.00
54978;BME280;40873;47.522;19.106;2022-10-29T04:09:44;101478.25;;;11.80;100.00
54978;BME280;40873;47.522;19.106;2022-10-29T04:12:11;101472.63;;;11.69;100.00
54978;BME280;40873;47.522;19.106;2022-10-29T04:14:38;101472.63;;;11.69;100.00
54978;BME280;40873;47.522;19.106;2022-10-29T04:17:11;101481.41;;;11.69;100.00
54978;BME280;40873;47.522;19.106;2022-10-29T04:19:38;101485.31;;;11.61;100.00
54978;BME280;40873;47.522;19.106;2022-10-29T04:22:06;101485.63;;;11.55;100.00
54978;BME280;40873;47.522;19.106;2022-10-29T04:24:53;101484.25;;;11.65;100.00
54978;BME280;40873;47.522;19.106;2022-10-29T04:27:39;101490.50;;;11.64;100.00
54978;BME280;40873;47.522;19.106;2022-10-29T04:30:26;101488.53;;;11.67;100.00
54978;BME280;40873;47.522;19.106;2022-10-29T04:32:57;101482.28;;;11.70;100.00
54978;BME280;40873;47.522;19.106;2022-10-29T04:35:28;101479.56;;;11.71;100.00
54978;BME280;40873;47.522;19.106;2022-10-29T04:37:55;101482.91;;;11.56;100.00
54978;BME280;40873;47.522;19.106;2022-10-29T04:40:22;101476.78;;;11.56;100.00
54978;BME280;40873;47.522;19.106;2022-10-29T04:42:50;101481.63;;;11.65;100.00
54978;BME280;40873;47.522;19.106;2022-10-29T04:45:17;101481.47;;;11.68;100.00
54978;BME280;40873;47.522;19.106;2022-10-29T04:47:45;101485.19;;;11.64;100.00
54978;BME280;40873;47.522;19.106;2022-10-29T04:50:12;101480.00;;;11.62;100.00
54978;BME280;40873;47.522;19.106;2022-10-29T04:52:39;101479.41;;;11.56;100.00
54978;BME280;40873;47.522;19.106;2022-10-29T04:55:07;101474.34;;;11.70;100.00
54978;BME280;40873;47.522;19.106;2022-10-29T04:57:34;101473.19;;;11.75;100.00
54978;BME280;40873;47.522;19.106;2022-10-29T05:00:01;101477.97;;;11.67;100.00
54978;BME280;40873;47.522;19.106;2022-10-29T05:02:28;101479.34;;;11.57;100.00
54978;BME280;40873;47.522;19.106;2022-10-29T05:04:55;101480.69;;;11.66;100.00
54978;BME280;40873;47.522;19.106;2022-10-29T05:07:21;101480.47;;;11.70;100.00
54978;BME280;40873;47.522;19.106;2022-10-29T05:09:48;101479.84;;;11.65;100.00
54978;BME280;40873;47.522;19.106;2022-10-29T05:12:15;101479.47;;;11.73;100.00
54978;BME280;40873;47.522;19.106;2022-10-29T05:14:42;101477.84;;;11.70;100.00
54978;BME280;40873;47.522;19.106;2022-10-29T05:17:09;101486.19;;;11.80;100.00
54978;BME280;40873;47.522;19.106;2022-10-29T05:19:36;101479.56;;;11.71;100.00
54978;BME280;40873;47.522;19.106;2022-10-29T05:22:02;101475.03;;;11.73;100.00
54978;BME280;40873;47.522;19.106;2022-10-29T05:24:30;101474.75;;;11.79;100.00
54978;BME280;40873;47.522;19.106;2022-10-29T05:26:56;101481.34;;;11.71;100.00
54978;BME280;40873;47.522;19.106;2022-10-29T05:29:23;101477.28;;;11.64;100.00
54978;BME280;40873;47.522;19.106;2022-10-29T05:31:52;101472.63;;;11.69;100.00
54978;BME280;40873;47.522;19.106;2022-10-29T05:34:20;101476.50;;;11.80;100.00
54978;BME280;40873;47.522;19.106;2022-10-29T05:36:47;101477.69;;;11.73;100.00
54978;BME280;40873;47.522;19.106;2022-10-29T05:39:14;101473.78;;;11.63;100.00
54978;BME280;40873;47.522;19.106;2022-10-29T05:41:41;101483.84;;;11.55;100.00
54978;BME280;40873;47.522;19.106;2022-10-29T05:44:08;101488.03;;;11.59;100.00
54978;BME280;40873;47.522;19.106;2022-10-29T05:46:35;101487.13;;;11.60;100.00
54978;BME280;40873;47.522;19.106;2022-10-29T05:49:02;101490.84;;;11.56;100.00
54978;BME280;40873;47.522;19.106;2022-10-29T05:51:29;101488.13;;;11.58;100.00
54978;BME280;40873;47.522;19.106;2022-10-29T05:53:56;101487.31;;;11.37;100.00
54978;BME280;40873;47.522;19.106;2022-10-29T05:56:23;101482.91;;;11.37;100.00
54978;BME280;40873;47.522;19.106;2022-10-29T05:58:51;101481.25;;;11.35;100.00
54978;BME280;40873;47.522;19.106;2022-10-29T06:01:17;101473.25;;;11.36;100.00
54978;BME280;40873;47.522;19.106;2022-10-29T06:03:47;101469.34;;;11.45;100.00
54978;BME280;40873;47.522;19.106;2022-10-29T06:06:14;101471.81;;;11.67;100.00
54978;BME280;40873;47.522;19.106;2022-10-29T06:08:41;101462.38;;;11.61;100.00
54978;BME280;40873;47.522;19.106;2022-10-29T06:11:08;101460.06;;;11.55;100.00
54978;BME280;40873;47.522;19.106;2022-10-29T06:13:35;101463.69;;;11.52;100.00
54978;BME280;40873;47.522;19.106;2022-10-29T06:16:02;101465.13;;;11.60;100.00
54978;BME280;40873;47.522;19.106;2022-10-29T06:18:29;101480.47;;;11.51;100.00
54978;BME280;40873;47.522;19.106;2022-10-29T06:20:57;101479.91;;;11.64;100.00
54978;BME280;40873;47.522;19.106;2022-10-29T06:23:26;101476.34;;;11.65;100.00
54978;BME280;40873;47.522;19.106;2022-10-29T06:25:53;101480.03;;;11.79;100.00
54978;BME280;40873;47.522;19.106;2022-10-29T06:28:20;101486.44;;;11.75;100.00
54978;BME280;40873;47.522;19.106;2022-10-29T06:30:48;101490.03;;;11.73;100.00
54978;BME280;40873;47.522;19.106;2022-10-29T06:33:17;101491.25;;;11.66;100.00
54978;BME280;40873;47.522;19.106;2022-10-29T06:35:44;101496.13;;;11.75;100.00
54978;BME280;40873;47.522;19.106;2022-10-29T06:38:12;101491.13;;;11.69;100.00
54978;BME280;40873;47.522;19.106;2022-10-29T06:40:42;101493.06;;;11.65;100.00
54978;BME280;40873;47.522;19.106;2022-10-29T06:43:10;101491.19;;;11.48;100.00
54978;BME280;40873;47.522;19.106;2022-10-29T06:45:37;101494.25;;;11.58;100.00
54978;BME280;40873;47.522;19.106;2022-10-29T06:48:05;101484.97;;;11.49;100.00
54978;BME280;40873;47.522;19.106;2022-10-29T06:50:32;101478.47;;;11.38;100.00
54978;BME280;40873;47.522;19.106;2022-10-29T06:53:04;101479.13;;;11.43;100.00
54978;BME280;40873;47.522;19.106;2022-10-29T06:55:32;101489.78;;;11.41;100.00
54978;BME280;40873;47.522;19.106;2022-10-29T06:58:05;101494.69;;;11.49;100.00
54978;BME280;40873;47.522;19.106;2022-10-29T07:00:32;101482.19;;;11.52;100.00
54978;BME280;40873;47.522;19.106;2022-10-29T07:03:00;101481.19;;;11.36;100.00
54978;BME280;40873;47.522;19.106;2022-10-29T07:05:27;101481.63;;;11.27;100.00
54978;BME280;40873;47.522;19.106;2022-10-29T07:07:58;101481.31;;;11.33;100.00
54978;BME280;40873;47.522;19.106;2022-10-29T07:10:28;101482.63;;;11.43;100.00
54978;BME280;40873;47.522;19.106;2022-10-29T07:12:56;101485.81;;;11.31;100.00
54978;BME280;40873;47.522;19.106;2022-10-29T07:15:23;101499.38;;;11.23;100.00
54978;BME280;40873;47.522;19.106;2022-10-29T07:18:01;101496.53;;;11.28;100.00
54978;BME280;40873;47.522;19.106;2022-10-29T07:20:32;101499.88;;;11.32;100.00
54978;BME280;40873;47.522;19.106;2022-10-29T07:22:59;101514.22;;;11.26;100.00
54978;BME280;40873;47.522;19.106;2022-10-29T07:25:28;101525.91;;;11.41;100.00
54978;BME280;40873;47.522;19.106;2022-10-29T07:30:31;101522.47;;;11.18;100.00
54978;BME280;40873;47.522;19.106;2022-10-29T07:32:58;101531.34;;;11.17;100.00
54978;BME280;40873;47.522;19.106;2022-10-29T07:35:25;101526.78;;;11.21;100.00
54978;BME280;40873;47.522;19.106;2022-10-29T07:37:57;101523.56;;;11.14;100.00
54978;BME280;40873;47.522;19.106;2022-10-29T07:40:27;101520.38;;;11.27;100.00
54978;BME280;40873;47.522;19.106;2022-10-29T07:42:54;101520.84;;;11.16;100.00
54978;BME280;40873;47.522;19.106;2022-10-29T07:45:22;101504.22;;;11.33;100.00
54978;BME280;40873;47.522;19.106;2022-10-29T07:48:00;101501.00;;;11.26;100.00
54978;BME280;40873;47.522;19.106;2022-10-29T07:50:30;101503.47;;;11.10;100.00
54978;BME280;40873;47.522;19.106;2022-10-29T07:53:01;101507.38;;;11.22;100.00
54978;BME280;40873;47.522;19.106;2022-10-29T07:55:28;101501.91;;;11.27;100.00
54978;BME280;40873;47.522;19.106;2022-10-29T07:58:02;101504.88;;;11.38;100.00
54978;BME280;40873;47.522;19.106;2022-10-29T08:00:31;101498.13;;;11.51;100.00
54978;BME280;40873;47.522;19.106;2022-10-29T08:02:59;101490.28;;;11.49;100.00
54978;BME280;40873;47.522;19.106;2022-10-29T08:05:27;101494.75;;;11.66;100.00
54978;BME280;40873;47.522;19.106;2022-10-29T08:07:55;101501.25;;;11.59;100.00
54978;BME280;40873;47.522;19.106;2022-10-29T08:10:24;101500.06;;;11.66;100.00
54978;BME280;40873;47.522;19.106;2022-10-29T08:12:53;101506.25;;;11.46;100.00
54978;BME280;40873;47.522;19.106;2022-10-29T08:15:21;101496.84;;;11.41;100.00
54978;BME280;40873;47.522;19.106;2022-10-29T08:17:49;101494.78;;;11.47;100.00
54978;BME280;40873;47.522;19.106;2022-10-29T08:20:17;101495.75;;;11.45;100.00
54978;BME280;40873;47.522;19.106;2022-10-29T08:22:44;101504.34;;;11.50;100.00
54978;BME280;40873;47.522;19.106;2022-10-29T08:25:11;101498.81;;;11.36;100.00
54978;BME280;40873;47.522;19.106;2022-10-29T08:27:38;101510.41;;;11.52;100.00
54978;BME280;40873;47.522;19.106;2022-10-29T08:30:07;101504.03;;;11.37;100.00
54978;BME280;40873;47.522;19.106;2022-10-29T08:32:34;101506.19;;;11.48;100.00
54978;BME280;40873;47.522;19.106;2022-10-29T08:35:02;101510.31;;;11.53;100.00
54978;BME280;40873;47.522;19.106;2022-10-29T08:37:29;101507.84;;;11.50;100.00
54978;BME280;40873;47.522;19.106;2022-10-29T08:39:55;101512.97;;;11.35;100.00
54978;BME280;40873;47.522;19.106;2022-10-29T08:45:08;101497.66;;;11.22;100.00
54978;BME280;40873;47.522;19.106;2022-10-29T08:50:29;101481.47;;;11.30;100.00
54978;BME280;40873;47.522;19.106;2022-10-29T08:53:00;101492.06;;;11.49;100.00
54978;BME280;40873;47.522;19.106;2022-10-29T08:55:47;101496.50;;;11.48;100.00
54978;BME280;40873;47.522;19.106;2022-10-29T08:58:29;101485.09;;;11.46;100.00
54978;BME280;40873;47.522;19.106;2022-10-29T09:00:59;101492.41;;;11.60;100.00
54978;BME280;40873;47.522;19.106;2022-10-29T09:03:26;101502.19;;;11.58;100.00
54978;BME280;40873;47.522;19.106;2022-10-29T09:06:12;101499.41;;;11.61;100.00
54978;BME280;40873;47.522;19.106;2022-10-29T09:09:36;101503.53;;;11.67;100.00
54978;BME280;40873;47.522;19.106;2022-10-29T09:17:43;101491.91;;;11.52;100.00
54978;BME280;40873;47.522;19.106;2022-10-29T09:20:35;101489.69;;;11.43;100.00
54978;BME280;40873;47.522;19.106;2022-10-29T09:23:13;101497.34;;;11.49;100.00
54978;BME280;40873;47.522;19.106;2022-10-29T09:25:58;101489.34;;;11.69;100.00
54978;BME280;40873;47.522;19.106;2022-10-29T09:31:39;101494.19;;;11.78;100.00
54978;BME280;40873;47.522;19.106;2022-10-29T09:34:14;101501.78;;;11.86;100.00
54978;BME280;40873;47.522;19.106;2022-10-29T09:36:45;101496.50;;;11.86;100.00
54978;BME280;40873;47.522;19.106;2022-10-29T09:39:15;101495.00;;;11.99;100.00
54978;BME280;40873;47.522;19.106;2022-10-29T09:41:52;101495.06;;;11.98;100.00
54978;BME280;40873;47.522;19.106;2022-10-29T09:44:48;101484.50;;;11.98;100.00
54978;BME280;40873;47.522;19.106;2022-10-29T09:50:40;101480.25;;;12.13;100.00
54978;BME280;40873;47.522;19.106;2022-10-29T09:53:11;101471.84;;;12.04;100.00
54978;BME280;40873;47.522;19.106;2022-10-29T09:55:42;101473.31;;;12.10;100.00
54978;BME280;40873;47.522;19.106;2022-10-29T09:58:17;101479.09;;;12.18;100.00
54978;BME280;40873;47.522;19.106;2022-10-29T10:00:45;101474.69;;;12.00;100.00
54978;BME280;40873;47.522;19.106;2022-10-29T10:03:22;101477.63;;;11.94;100.00
54978;BME280;40873;47.522;19.106;2022-10-29T10:06:00;101468.34;;;11.85;100.00
54978;BME280;40873;47.522;19.106;2022-10-29T10:08:30;101467.03;;;11.75;100.00
54978;BME280;40873;47.522;19.106;2022-10-29T10:11:05;101474.50;;;11.86;100.00
54978;BME280;40873;47.522;19.106;2022-10-29T10:13:35;101468.03;;;11.72;100.00
54978;BME280;40873;47.522;19.106;2022-10-29T10:16:04;101466.97;;;11.76;100.00
54978;BME280;40873;47.522;19.106;2022-10-29T10:23:44;101448.75;;;11.70;100.00
54978;BME280;40873;47.522;19.106;2022-10-29T10:29:16;101454.38;;;12.00;100.00
54978;BME280;40873;47.522;19.106;2022-10-29T10:31:47;101453.31;;;12.04;100.00
54978;BME280;40873;47.522;19.106;2022-10-29T10:34:25;101452.38;;;12.05;100.00
54978;BME280;40873;47.522;19.106;2022-10-29T10:36:54;101460.50;;;12.20;100.00
54978;BME280;40873;47.522;19.106;2022-10-29T10:39:31;101452.84;;;12.14;100.00
54978;BME280;40873;47.522;19.106;2022-10-29T10:42:14;101449.63;;;11.90;100.00
54978;BME280;40873;47.522;19.106;2022-10-29T10:44:51;101445.44;;;12.03;100.00
54978;BME280;40873;47.522;19.106;2022-10-29T10:47:22;101445.19;;;12.26;100.00
54978;BME280;40873;47.522;19.106;2022-10-29T10:49:50;101439.50;;;12.34;100.00
54978;BME280;40873;47.522;19.106;2022-10-29T10:52:24;101435.75;;;12.21;100.00
54978;BME280;40873;47.522;19.106;2022-10-29T10:55:08;101446.88;;;12.27;100.00
54978;BME280;40873;47.522;19.106;2022-10-29T10:57:44;101439.34;;;12.20;100.00
54978;BME280;40873;47.522;19.106;2022-10-29T11:00:19;101441.03;;;12.21;100.00
54978;BME280;40873;47.522;19.106;2022-10-29T11:08:39;101423.84;;;12.29;100.00
54978;BME280;40873;47.522;19.106;2022-10-29T11:12:12;101418.09;;;12.56;100.00
54978;BME280;40873;47.522;19.106;2022-10-29T11:14:45;101420.44;;;12.45;100.00
54978;BME280;40873;47.522;19.106;2022-10-29T11:17:53;101412.94;;;12.35;100.00
54978;BME280;40873;47.522;19.106;2022-10-29T11:20:25;101412.63;;;12.42;100.00
54978;BME280;40873;47.522;19.106;2022-10-29T11:25:49;101421.38;;;12.26;100.00
54978;BME280;40873;47.522;19.106;2022-10-29T11:28:30;101412.63;;;12.42;100.00
54978;BME280;40873;47.522;19.106;2022-10-29T11:31:15;101411.31;;;12.50;100.00
54978;BME280;40873;47.522;19.106;2022-10-29T11:34:07;101393.97;;;12.45;100.00
54978;BME280;40873;47.522;19.106;2022-10-29T11:37:13;101409.75;;;12.63;100.00
54978;BME280;40873;47.522;19.106;2022-10-29T11:39:45;101398.16;;;12.66;100.00
54978;BME280;40873;47.522;19.106;2022-10-29T11:42:13;101391.41;;;12.76;100.00
54978;BME280;40873;47.522;19.106;2022-10-29T11:44:40;101397.97;;;12.86;100.00
54978;BME280;40873;47.522;19.106;2022-10-29T11:53:17;101390.78;;;12.88;100.00
54978;BME280;40873;47.522;19.106;2022-10-29T11:55:58;101389.41;;;12.81;100.00
54978;BME280;40873;47.522;19.106;2022-10-29T12:04:34;101381.56;;;12.96;100.00
54978;BME280;40873;47.522;19.106;2022-10-29T12:10:14;101379.13;;;12.58;100.00
54978;BME280;40873;47.522;19.106;2022-10-29T12:12:53;101375.91;;;12.35;100.00
54978;BME280;40873;47.522;19.106;2022-10-29T12:15:38;101369.09;;;12.65;100.00
54978;BME280;40873;47.522;19.106;2022-10-29T12:21:32;101362.91;;;12.81;100.00
54978;BME280;40873;47.522;19.106;2022-10-29T12:27:44;101347.91;;;12.98;100.00
54978;BME280;40873;47.522;19.106;2022-10-29T12:30:16;101345.75;;;12.88;100.00
54978;BME280;40873;47.522;19.106;2022-10-29T12:32:58;101341.59;;;13.16;100.00
54978;BME280;40873;47.522;19.106;2022-10-29T12:35:43;101329.72;;;13.07;100.00
54978;BME280;40873;47.522;19.106;2022-10-29T12:38:35;101338.34;;;13.11;100.00
54978;BME280;40873;47.522;19.106;2022-10-29T12:43:41;101325.25;;;12.92;100.00
54978;BME280;40873;47.522;19.106;2022-10-29T12:49:16;101331.75;;;12.53;100.00
54978;BME280;40873;47.522;19.106;2022-10-29T12:51:55;101324.59;;;12.71;100.00
54978;BME280;40873;47.522;19.106;2022-10-29T12:54:41;101317.81;;;12.83;100.00
54978;BME280;40873;47.522;19.106;2022-10-29T12:59:40;101323.72;;;12.88;100.00
54978;BME280;40873;47.522;19.106;2022-10-29T13:15:32;101309.66;;;12.70;100.00
54978;BME280;40873;47.522;19.106;2022-10-29T13:18:13;101311.97;;;12.60;100.00
54978;BME280;40873;47.522;19.106;2022-10-29T13:20:49;101323.81;;;12.53;100.00
54978;BME280;40873;47.522;19.106;2022-10-29T13:25:55;101322.25;;;12.82;100.00
54978;BME280;40873;47.522;19.106;2022-10-29T13:31:42;101310.31;;;12.58;100.00
54978;BME280;40873;47.522;19.106;2022-10-29T13:41:40;101314.09;;;12.70;100.00
54978;BME280;40873;47.522;19.106;2022-10-29T13:44:11;101310.38;;;12.74;100.00
54978;BME280;40873;47.522;19.106;2022-10-29T13:46:57;101322.69;;;12.90;100.00
54978;BME280;40873;47.522;19.106;2022-10-29T13:49:51;101310.19;;;12.93;100.00
54978;BME280;40873;47.522;19.106;2022-10-29T13:52:18;101311.97;;;12.76;100.00
54978;BME280;40873;47.522;19.106;2022-10-29T13:54:59;101307.44;;;12.78;100.00
54978;BME280;40873;47.522;19.106;2022-10-29T13:57:36;101305.59;;;12.80;100.00
54978;BME280;40873;47.522;19.106;2022-10-29T14:10:19;101287.72;;;12.68;100.00
54978;BME280;40873;47.522;19.106;2022-10-29T14:12:54;101289.59;;;12.66;100.00
54978;BME280;40873;47.522;19.106;2022-10-29T14:15:23;101289.34;;;12.71;100.00
54978;BME280;40873;47.522;19.106;2022-10-29T14:17:50;101291.03;;;12.72;100.00
54978;BME280;40873;47.522;19.106;2022-10-29T14:20:26;101299.25;;;12.67;100.00
54978;BME280;40873;47.522;19.106;2022-10-29T14:22:54;101284.22;;;12.68;100.00
54978;BME280;40873;47.522;19.106;2022-10-29T14:25:33;101288.91;;;12.62;100.00
54978;BME280;40873;47.522;19.106;2022-10-29T14:30:46;101297.03;;;12.42;100.00
54978;BME280;40873;47.522;19.106;2022-10-29T14:33:20;101307.50;;;12.28;100.00
54978;BME280;40873;47.522;19.106;2022-10-29T14:35:48;101310.69;;;12.34;100.00
54978;BME280;40873;47.522;19.106;2022-10-29T14:38:16;101302.44;;;12.23;100.00
54978;BME280;40873;47.522;19.106;2022-10-29T14:40:44;101306.34;;;12.33;100.00
54978;BME280;40873;47.522;19.106;2022-10-29T14:43:24;101302.19;;;12.45;100.00
54978;BME280;40873;47.522;19.106;2022-10-29T14:46:07;101294.41;;;12.42;100.00
54978;BME280;40873;47.522;19.106;2022-10-29T14:48:36;101296.91;;;12.45;100.00
54978;BME280;40873;47.522;19.106;2022-10-29T14:51:04;101296.06;;;12.45;100.00
54978;BME280;40873;47.522;19.106;2022-10-29T14:53:33;101297.00;;;12.26;100.00
54978;BME280;40873;47.522;19.106;2022-10-29T14:56:08;101301.13;;;12.32;100.00
54978;BME280;40873;47.522;19.106;2022-10-29T14:58:37;101298.72;;;12.27;100.00
54978;BME280;40873;47.522;19.106;2022-10-29T15:01:12;101296.84;;;12.29;100.00
54978;BME280;40873;47.522;19.106;2022-10-29T15:03:40;101302.53;;;12.22;100.00
54978;BME280;40873;47.522;19.106;2022-10-29T15:08:40;101291.75;;;12.42;100.00
54978;BME280;40873;47.522;19.106;2022-10-29T15:11:39;101290.41;;;12.51;100.00
54978;BME280;40873;47.522;19.106;2022-10-29T15:16:59;101272.22;;;12.45;100.00